createdAt,value
2018-05-18T00:02:22.655Z,95291.47
2018-05-18T00:04:50.710Z,95296.89
2018-05-18T00:07:18.686Z,95284.81
2018-05-18T00:09:46.702Z,95301.39
2018-05-18T00:12:14.716Z,95300.63
2018-05-18T00:14:42.654Z,95304.23
2018-05-18T00:17:10.622Z,95305.42
2018-05-18T00:19:38.709Z,95299.73
2018-05-18T00:22:06.712Z,95306.45
2018-05-18T00:24:34.717Z,95303.85
2018-05-18T00:27:02.713Z,95306.06
2018-05-18T00:29:31.072Z,95306.86
2018-05-18T00:31:59.057Z,95306.65
2018-05-18T00:34:27.043Z,95305.50
2018-05-18T00:36:54.996Z,95290.86
2018-05-18T00:39:22.979Z,95305.41
2018-05-18T00:41:50.997Z,95304.63
2018-05-18T00:44:18.939Z,95296.58
2018-05-18T00:46:46.904Z,95271.67
2018-05-18T00:49:14.923Z,95298.78
2018-05-18T00:51:42.905Z,95304.93
2018-05-18T00:54:10.939Z,95298.14
2018-05-18T00:56:38.987Z,95297.92
2018-05-18T00:59:07.025Z,95302.11
2018-05-18T01:01:35.080Z,95299.58
2018-05-18T01:04:03.077Z,95299.80
2018-05-18T01:06:31.088Z,95303.05
2018-05-18T01:08:59.101Z,95295.70
2018-05-18T01:11:27.118Z,95308.09
2018-05-18T01:13:55.116Z,95313.53
2018-05-18T01:16:23.154Z,95312.11
2018-05-18T01:18:51.175Z,95310.14
2018-05-18T01:21:19.388Z,95320.86
2018-05-18T01:23:47.478Z,95321.78
2018-05-18T01:26:15.483Z,95324.72
2018-05-18T01:28:43.476Z,95319.14
2018-05-18T01:31:11.872Z,95313.95
2018-05-18T01:33:39.874Z,95315.19
2018-05-18T01:36:07.894Z,95319.89
2018-05-18T01:38:35.898Z,95312.17
2018-05-18T01:41:03.910Z,95307.80
2018-05-18T01:43:31.923Z,95311.58
2018-05-18T01:45:59.937Z,95311.33
2018-05-18T01:48:27.960Z,95307.05
2018-05-18T01:50:55.999Z,95302.80
2018-05-18T01:53:23.956Z,95301.47
2018-05-18T01:55:51.965Z,95302.66
2018-05-18T01:58:19.994Z,95306.36
2018-05-18T02:00:47.955Z,95305.98
2018-05-18T02:03:15.999Z,95303.52
2018-05-18T02:05:44.018Z,95299.97
2018-05-18T02:08:12.206Z,95305.80
2018-05-18T02:10:40.226Z,95301.46
2018-05-18T02:13:08.207Z,95299.83
2018-05-18T02:15:36.231Z,95303.20
2018-05-18T02:18:04.231Z,95297.13
2018-05-18T02:20:32.170Z,95300.81
2018-05-18T02:23:00.155Z,95303.56
2018-05-18T02:25:28.182Z,95300.66
2018-05-18T02:27:56.296Z,95299.96
2018-05-18T02:30:24.300Z,95297.97
2018-05-18T02:32:52.824Z,95299.64
2018-05-18T02:35:20.800Z,95296.88
2018-05-18T02:37:48.778Z,95301.39
2018-05-18T02:40:16.808Z,95299.91
2018-05-18T02:42:44.833Z,95290.83
2018-05-18T02:45:12.794Z,95292.34
2018-05-18T02:47:40.764Z,95294.34
2018-05-18T02:50:08.817Z,95297.81
2018-05-18T02:52:36.846Z,95293.61
2018-05-18T02:55:04.901Z,95296.47
2018-05-18T02:57:33.218Z,95292.73
2018-05-18T03:00:01.171Z,95303.06
2018-05-18T03:02:29.210Z,95307.36
2018-05-18T03:04:57.171Z,95303.03
2018-05-18T03:07:25.197Z,95300.92
2018-05-18T03:09:53.232Z,95302.09
2018-05-18T03:12:21.234Z,95296.20
2018-05-18T03:14:49.213Z,95305.25
2018-05-18T03:17:17.149Z,95316.75
2018-05-18T03:19:45.094Z,95320.05
2018-05-18T03:22:13.093Z,95318.30
2018-05-18T03:24:41.013Z,95318.10
2018-05-18T03:27:09.016Z,95322.02
2018-05-18T03:29:37.058Z,95326.17
2018-05-18T03:32:05.417Z,95331.41
2018-05-18T03:34:34.015Z,95341.83
2018-05-18T03:37:02.599Z,95345.32
2018-05-18T03:39:31.249Z,95346.98
2018-05-18T03:41:59.680Z,95350.25
2018-05-18T03:44:28.140Z,95333.94
2018-05-18T03:46:56.757Z,95342.31
2018-05-18T03:49:25.093Z,95344.04
2018-05-18T03:51:53.790Z,95342.88
2018-05-18T03:54:21.972Z,95343.87
2018-05-18T03:56:50.354Z,95353.25
2018-05-18T03:59:18.960Z,95354.56
2018-05-18T04:01:59.551Z,95346.23
2018-05-18T04:04:40.138Z,95345.29
2018-05-18T04:07:20.659Z,95353.23
2018-05-18T04:09:50.427Z,95347.92
2018-05-18T04:12:19.110Z,95348.52
2018-05-18T04:14:47.397Z,95354.56
2018-05-18T04:17:15.504Z,95350.06
2018-05-18T04:19:43.532Z,95349.77
2018-05-18T04:22:11.521Z,95353.28
2018-05-18T04:24:39.632Z,95354.30
2018-05-18T04:27:07.958Z,95358.34
2018-05-18T04:29:36.528Z,95357.77
2018-05-18T04:32:04.720Z,95353.81
2018-05-18T04:34:33.071Z,95353.97
2018-05-18T04:37:02.165Z,95352.63
2018-05-18T04:39:30.602Z,95354.86
2018-05-18T04:41:58.946Z,95323.00
2018-05-18T04:44:27.202Z,95321.50
2018-05-18T04:46:55.697Z,95352.52
2018-05-18T04:49:24.153Z,95343.75
2018-05-18T04:51:52.549Z,95332.09
2018-05-18T04:54:21.124Z,95345.72
2018-05-18T04:56:49.568Z,95348.12
2018-05-18T04:59:17.969Z,95344.86
2018-05-18T05:01:46.330Z,95349.07
2018-05-18T05:04:14.738Z,95350.74
2018-05-18T05:06:42.935Z,95349.42
2018-05-18T05:09:11.391Z,95352.55
2018-05-18T05:11:39.669Z,95349.22
2018-05-18T05:14:08.146Z,95353.58
2018-05-18T05:16:36.592Z,95343.52
2018-05-18T05:19:04.913Z,95353.53
2018-05-18T05:21:33.377Z,95355.30
2018-05-18T05:24:01.749Z,95356.38
2018-05-18T05:26:30.039Z,95353.14
2018-05-18T05:28:58.444Z,95361.64
2018-05-18T05:31:26.904Z,95363.09
2018-05-18T05:33:55.326Z,95361.82
2018-05-18T05:36:23.674Z,95352.89
2018-05-18T05:38:52.181Z,95352.61
2018-05-18T05:41:20.735Z,95352.17
2018-05-18T05:43:48.681Z,95355.86
2018-05-18T05:46:17.295Z,95360.95
2018-05-18T05:48:45.851Z,95355.09
2018-05-18T05:51:14.339Z,95362.13
2018-05-18T05:53:42.548Z,95364.67
2018-05-18T05:56:10.620Z,95360.36
2018-05-18T05:58:38.951Z,95361.18
2018-05-18T06:01:07.527Z,95354.14
2018-05-18T06:03:35.602Z,95353.84
2018-05-18T06:06:03.649Z,95348.06
2018-05-18T06:08:31.710Z,95348.28
2018-05-18T06:11:00.043Z,95350.55
2018-05-18T06:13:28.502Z,95351.50
2018-05-18T06:15:57.081Z,95352.75
2018-05-18T06:18:25.323Z,95357.72
2018-05-18T06:20:53.993Z,95348.98
2018-05-18T06:23:22.032Z,95351.70
2018-05-18T06:25:51.354Z,95350.34
2018-05-18T06:28:19.406Z,95352.82
2018-05-18T06:30:47.448Z,95351.64
2018-05-18T06:33:15.467Z,95354.44
2018-05-18T06:35:43.598Z,95310.48
2018-05-18T06:38:11.656Z,95346.97
2018-05-18T06:40:40.093Z,95340.38
2018-05-18T06:43:08.098Z,95352.58
2018-05-18T06:45:36.148Z,95342.19
2018-05-18T06:48:04.237Z,95347.06
2018-05-18T06:50:32.296Z,95346.00
2018-05-18T06:53:00.292Z,95337.20
2018-05-18T06:55:28.331Z,95331.19
2018-05-18T06:57:56.350Z,95335.30
2018-05-18T07:00:24.324Z,95329.50
2018-05-18T07:02:52.360Z,95339.41
2018-05-18T07:05:20.404Z,95328.25
2018-05-18T07:07:48.371Z,95337.55
2018-05-18T07:10:16.316Z,95330.17
2018-05-18T07:12:44.318Z,95327.52
2018-05-18T07:15:12.380Z,95324.53
2018-05-18T07:17:40.555Z,95321.59
2018-05-18T07:20:08.527Z,95327.92
2018-05-18T07:22:36.567Z,95330.58
2018-05-18T07:25:04.664Z,95329.80
2018-05-18T07:27:32.772Z,95326.69
2018-05-18T07:30:00.753Z,95329.92
2018-05-18T07:32:28.909Z,95331.22
2018-05-18T07:34:56.910Z,95319.84
2018-05-18T07:37:24.952Z,95317.91
2018-05-18T07:39:53.034Z,95267.05
2018-05-18T07:42:21.230Z,95315.03
2018-05-18T07:44:49.170Z,95314.34
2018-05-18T07:47:17.141Z,95314.30
2018-05-18T07:49:45.164Z,95314.73
2018-05-18T07:52:13.347Z,95309.67
2018-05-18T07:54:41.407Z,95316.79
2018-05-18T07:57:09.445Z,95319.46
2018-05-18T07:59:37.474Z,95319.77
2018-05-18T08:02:05.549Z,95319.38
2018-05-18T08:04:33.504Z,95315.31
2018-05-18T08:07:01.563Z,95300.38
2018-05-18T08:09:29.611Z,95310.94
2018-05-18T08:11:57.632Z,95308.47
2018-05-18T08:14:25.678Z,95295.38
2018-05-18T08:16:53.704Z,95299.77
2018-05-18T08:19:21.792Z,95298.36
2018-05-18T08:21:49.749Z,95302.43
2018-05-18T08:24:17.851Z,95299.94
2018-05-18T08:29:45.987Z,95292.17
2018-05-18T08:32:14.038Z,95294.27
2018-05-18T08:34:42.015Z,95296.09
2018-05-18T08:37:10.044Z,95292.52
2018-05-18T08:39:38.035Z,95290.73
2018-05-18T08:42:06.050Z,95289.68
2018-05-18T08:44:34.540Z,95293.03
2018-05-18T08:47:02.640Z,95288.17
2018-05-18T08:49:30.725Z,95291.72
2018-05-18T08:51:58.721Z,95288.54
2018-05-18T08:54:26.744Z,95284.20
2018-05-18T08:56:54.876Z,95274.38
2018-05-18T08:59:22.846Z,95272.61
2018-05-18T09:01:50.891Z,95266.41
2018-05-18T09:04:18.917Z,95274.43
2018-05-18T09:06:46.938Z,95254.68
2018-05-18T09:09:14.878Z,95265.32
2018-05-18T09:11:42.906Z,95267.95
2018-05-18T09:14:10.954Z,95267.36
2018-05-18T09:16:39.016Z,95250.34
2018-05-18T09:19:07.005Z,95262.22
2018-05-18T09:21:35.061Z,95246.56
2018-05-18T09:24:03.155Z,95245.94
2018-05-18T09:26:31.250Z,95251.56
2018-05-18T09:28:59.360Z,95253.49
2018-05-18T09:31:27.388Z,95250.77
2018-05-18T09:33:55.566Z,95249.14
2018-05-18T09:36:23.566Z,95240.41
2018-05-18T09:38:51.613Z,95236.60
2018-05-18T09:41:19.624Z,95241.35
2018-05-18T09:43:47.652Z,95238.09
2018-05-18T09:46:15.939Z,95236.91
2018-05-18T09:48:44.037Z,95242.22
2018-05-18T09:51:12.033Z,95241.03
2018-05-18T09:53:40.089Z,95232.62
2018-05-18T09:56:08.142Z,95234.77
2018-05-18T09:58:36.161Z,95236.95
2018-05-18T10:01:04.171Z,95225.39
2018-05-18T10:03:32.221Z,95224.09
2018-05-18T10:06:00.251Z,95218.60
2018-05-18T10:08:28.382Z,95222.98
2018-05-18T10:10:56.430Z,95209.70
2018-05-18T10:13:24.501Z,95216.34
2018-05-18T10:15:52.571Z,95219.56
2018-05-18T10:18:20.581Z,95218.51
2018-05-18T10:20:48.762Z,95213.83
2018-05-18T10:23:16.887Z,95215.03
2018-05-18T10:25:44.978Z,95216.85
2018-05-18T10:28:13.052Z,95211.69
2018-05-18T10:30:41.016Z,95196.76
2018-05-18T10:33:09.071Z,95198.03
2018-05-18T10:35:37.119Z,95188.33
2018-05-18T10:38:05.178Z,95178.45
2018-05-18T10:40:33.232Z,95178.36
2018-05-18T10:43:01.253Z,95172.67
2018-05-18T10:45:29.220Z,95173.37
2018-05-18T10:47:57.553Z,95167.45
2018-05-18T10:50:25.703Z,95169.18
2018-05-18T10:52:53.811Z,95162.60
2018-05-18T10:55:22.280Z,95154.02
2018-05-18T10:57:50.399Z,95153.59
2018-05-18T11:00:18.542Z,95149.43
2018-05-18T11:02:46.787Z,95150.19
2018-05-18T11:05:14.931Z,95149.52
2018-05-18T11:07:43.030Z,95139.22
2018-05-18T11:10:11.301Z,95132.34
2018-05-18T11:12:39.420Z,95137.56
2018-05-18T11:15:07.536Z,95134.91
2018-05-18T11:17:35.815Z,95135.41
2018-05-18T11:20:04.015Z,95129.05
2018-05-18T11:22:32.065Z,95119.84
2018-05-18T11:25:00.649Z,95121.97
2018-05-18T11:27:28.762Z,95121.97
2018-05-18T11:29:56.841Z,95118.59
2018-05-18T11:32:24.975Z,95120.00
2018-05-18T11:34:53.089Z,95093.17
2018-05-18T11:37:21.419Z,95106.37
2018-05-18T11:39:49.546Z,95106.06
2018-05-18T11:42:17.708Z,95104.66
2018-05-18T11:44:46.193Z,95103.72
2018-05-18T11:47:14.219Z,95104.77
2018-05-18T11:49:42.155Z,95102.43
2018-05-18T11:52:10.135Z,95099.63
2018-05-18T11:54:38.235Z,95103.13
2018-05-18T11:57:06.192Z,95099.78
2018-05-18T11:59:34.249Z,95095.62
2018-05-18T12:02:02.201Z,95101.59
2018-05-18T12:04:30.235Z,95095.79
2018-05-18T12:06:58.225Z,95091.56
2018-05-18T12:09:26.221Z,95089.43
2018-05-18T12:11:54.293Z,95091.73
2018-05-18T12:14:22.383Z,95090.34
2018-05-18T12:16:50.366Z,95085.06
2018-05-18T12:19:18.398Z,95089.61
2018-05-18T12:21:46.450Z,95087.38
2018-05-18T12:24:14.481Z,95080.14
2018-05-18T12:26:42.783Z,95080.52
2018-05-18T12:29:10.580Z,95004.34
2018-05-18T12:31:38.607Z,95083.16
2018-05-18T12:34:06.762Z,95081.15
2018-05-18T12:36:34.772Z,95083.06
2018-05-18T12:39:02.986Z,95081.02
2018-05-18T12:41:34.328Z,95075.43
2018-05-18T12:44:02.398Z,95078.78
2018-05-18T12:46:30.427Z,95071.75
2018-05-18T12:48:58.868Z,95077.58
2018-05-18T12:51:26.949Z,95076.72
2018-05-18T12:53:55.011Z,95079.22
2018-05-18T12:56:23.041Z,95082.70
2018-05-18T12:58:51.050Z,95083.73
2018-05-18T13:01:18.986Z,95071.44
2018-05-18T13:03:46.988Z,95066.47
2018-05-18T13:06:14.986Z,95075.78
2018-05-18T13:08:42.972Z,95069.25
2018-05-18T13:11:10.981Z,95068.31
2018-05-18T13:13:38.999Z,95066.61
2018-05-18T13:16:07.001Z,95072.35
2018-05-18T13:18:34.998Z,95066.55
2018-05-18T13:21:03.034Z,95062.64
2018-05-18T13:23:31.068Z,95065.00
2018-05-18T13:25:59.069Z,95061.35
2018-05-18T13:28:27.055Z,95061.55
2018-05-18T13:30:55.147Z,95047.23
2018-05-18T13:33:23.146Z,95059.28
2018-05-18T13:35:51.195Z,94975.64
2018-05-18T13:38:19.229Z,95049.60
2018-05-18T13:40:48.235Z,95053.02
2018-05-18T13:43:16.247Z,95052.86
2018-05-18T13:45:44.387Z,95025.72
2018-05-18T13:48:12.390Z,95053.34
2018-05-18T13:50:40.737Z,95060.73
2018-05-18T13:53:08.690Z,95052.79
2018-05-18T13:55:36.753Z,95051.05
2018-05-18T13:58:04.778Z,95055.05
2018-05-18T14:00:32.762Z,95050.20
2018-05-18T14:03:00.734Z,95050.05
2018-05-18T14:05:28.780Z,95024.95
2018-05-18T14:07:56.777Z,95040.92
2018-05-18T14:10:24.770Z,95038.58
2018-05-18T14:12:52.779Z,95030.12
2018-05-18T14:15:20.851Z,95026.88
2018-05-18T14:17:48.822Z,95024.09
2018-05-18T14:20:16.787Z,95011.98
2018-05-18T14:22:44.916Z,95017.45
2018-05-18T14:25:12.944Z,95016.84
2018-05-18T14:27:41.058Z,95018.74
2018-05-18T14:30:09.082Z,95015.70
2018-05-18T14:32:37.105Z,95015.23
2018-05-18T14:35:05.093Z,95022.16
2018-05-18T14:37:33.074Z,95012.30
2018-05-18T14:40:01.107Z,95015.57
2018-05-18T14:42:29.107Z,95016.28
2018-05-18T14:44:57.128Z,95032.56
2018-05-18T14:47:25.138Z,95045.80
2018-05-18T14:49:53.056Z,95053.75
2018-05-18T14:52:21.604Z,95047.20
2018-05-18T14:54:49.650Z,95042.62
2018-05-18T14:57:17.637Z,95048.80
2018-05-18T14:59:45.658Z,95063.49
2018-05-18T15:02:13.672Z,95074.18
2018-05-18T15:04:41.655Z,95070.08
2018-05-18T15:07:09.650Z,95078.66
2018-05-18T15:09:38.287Z,95084.58
2018-05-18T15:12:06.354Z,95070.78
2018-05-18T15:14:34.374Z,95085.34
2018-05-18T15:17:02.460Z,95072.13
2018-05-18T15:19:30.455Z,95074.42
2018-05-18T15:21:58.429Z,95078.84
2018-05-18T15:24:26.510Z,95093.09
2018-05-18T15:26:54.527Z,95099.37
2018-05-18T15:29:22.521Z,95082.28
2018-05-18T15:31:50.523Z,95090.86
2018-05-18T15:34:18.601Z,95104.91
2018-05-18T15:36:46.645Z,95109.08
2018-05-18T15:39:14.663Z,95106.40
2018-05-18T15:41:42.659Z,95081.80
2018-05-18T15:44:10.651Z,95096.12
2018-05-18T15:46:38.637Z,95086.18
2018-05-18T15:49:06.605Z,95081.53
2018-05-18T15:51:34.592Z,95081.11
2018-05-18T15:54:02.769Z,95079.71
2018-05-18T15:56:30.834Z,95089.77
2018-05-18T15:58:58.836Z,95086.61
2018-05-18T16:01:26.882Z,95107.91
2018-05-18T16:03:54.881Z,95106.92
2018-05-18T16:06:22.888Z,95115.05
2018-05-18T16:08:50.928Z,95110.00
2018-05-18T16:11:18.974Z,95123.84
2018-05-18T16:13:46.967Z,95122.39
2018-05-18T16:16:14.914Z,95146.44
2018-05-18T16:18:42.881Z,95150.20
2018-05-18T16:21:10.854Z,95149.08
2018-05-18T16:26:37.276Z,95180.60
2018-05-18T16:29:05.320Z,95202.69
2018-05-18T16:31:33.345Z,95199.09
2018-05-18T16:34:01.366Z,95192.33
2018-05-18T16:36:29.442Z,95195.80
2018-05-18T16:38:57.544Z,95189.41
2018-05-18T16:41:25.516Z,95197.70
2018-05-18T16:43:53.537Z,95193.91
2018-05-18T16:46:21.547Z,95199.08
2018-05-18T16:48:49.524Z,95207.27
2018-05-18T16:51:17.511Z,95198.11
2018-05-18T16:53:45.500Z,95194.59
2018-05-18T16:56:13.854Z,95193.68
2018-05-18T16:58:41.897Z,95202.44
2018-05-18T17:01:09.904Z,95199.47
2018-05-18T17:03:37.943Z,95203.45
2018-05-18T17:06:05.962Z,95211.83
2018-05-18T17:08:34.022Z,95219.44
2018-05-18T17:11:02.019Z,95212.48
2018-05-18T17:13:30.104Z,95211.73
2018-05-18T17:15:58.124Z,95219.23
2018-05-18T17:18:26.139Z,95234.22
2018-05-18T17:20:54.134Z,95217.89
2018-05-18T17:23:22.174Z,95238.94
2018-05-18T17:25:50.252Z,95245.69
2018-05-18T17:28:18.282Z,95242.83
2018-05-18T17:30:46.283Z,95257.76
2018-05-18T17:33:14.270Z,95233.84
2018-05-18T17:35:42.311Z,95266.41
2018-05-18T17:38:10.335Z,95271.05
2018-05-18T17:40:38.268Z,95271.49
2018-05-18T17:43:06.297Z,95275.90
2018-05-18T17:45:34.328Z,95284.84
2018-05-18T17:48:02.379Z,95285.28
2018-05-18T17:50:30.350Z,95287.03
2018-05-18T17:52:58.385Z,95294.50
2018-05-18T17:55:26.419Z,95290.91
2018-05-18T17:57:55.128Z,95297.84
2018-05-18T18:00:23.187Z,95288.77
2018-05-18T18:02:51.267Z,95293.89
2018-05-18T18:05:19.267Z,95286.30
2018-05-18T18:07:47.348Z,95287.87
2018-05-18T18:10:15.433Z,95282.16
2018-05-18T18:12:43.458Z,95281.78
2018-05-18T18:15:11.364Z,95282.13
2018-05-18T18:17:39.412Z,95270.27
2018-05-18T18:20:07.437Z,95268.50
2018-05-18T18:22:35.463Z,95261.27
2018-05-18T18:25:03.542Z,95263.44
2018-05-18T18:27:31.535Z,95259.42
2018-05-18T18:29:59.548Z,95256.80
2018-05-18T18:32:27.532Z,95260.08
2018-05-18T18:34:55.539Z,95261.78
2018-05-18T18:37:23.520Z,95264.88
2018-05-18T18:39:51.463Z,95271.51
2018-05-18T18:42:19.478Z,95267.37
2018-05-18T18:44:47.494Z,95271.16
2018-05-18T18:47:15.363Z,95275.79
2018-05-18T18:49:43.360Z,95269.59
2018-05-18T18:52:11.500Z,95271.84
2018-05-18T18:54:39.482Z,95275.34
2018-05-18T18:57:07.437Z,95270.17
2018-05-18T18:59:35.569Z,95281.78
2018-05-18T19:02:03.559Z,95280.42
2018-05-18T19:04:31.502Z,95256.66
